Terminal Aerodrome Forecast
Issued by NWS

Home | Current Version | Previous Version | Graphics & Text | Print | Product List | Glossary On
Versions: 1 2 3 4 5 6 7 8 9 10 11 12 13 14 15 16 17 18 19
000
FTUS42 KMHX 191132
TAFISO
TAF
KISO 191132Z 1912/2012 10005KT P6SM VCSH SCT008 OVC020
     FM192000 18006KT P6SM SCT025 BKN040
     FM200200 17004KT 2SM BR OVC008
     FM200600 VRB03KT 3/4SM BR OVC004
      AMD LTD TO CLD VIS AND WIND=

USA.gov is the U.S. government's official web portal to all federal, state and local government web resources and services.